Detroit, Michigan
Traffic Map
Current Weather Conditions
Detroit, Michigan
Scattered Clouds
Scattered Clouds
72°
Feels Like: 72°
Wind Chill: 72° Ceiling: Unl
Heat Index: 72° Visibility: 15mi
Dew Point: 55° Wind: 8mph
Humidity: 57% Direction: 280° (W)
Pressure: 29.95in Gusts: 0mph
Raw Report DataCYQG 050200Z 28007KT 15SM FEW060 SCT270 22/13 A2995 RMK CU2CI1 SLP141 DENSITY ALT 1400FT
Traffic Incident Summary
Active as of:
Severity:
Category:
InformationThere was an issue retrieving the traffic information for this location. Please try a different location or try again shortly.
Advertisements
Track Severe Weather on mobile